Hangzhou Bay Bridge — 3FMK3 — position and weather

sailwx.info

Track history (hours):
 
Tides and Currents Weather Stations Pressure Air Temp Water Temp Dewpoint Dewpoint Depression Visibility Wind Speed Wind Dir Waves Ship Positions

Hangzhou Bay Bridge

Last reported at 2017-Oct-18 22:42 UTC. Time now 2017-Oct-19 00:21 UTC.
Position N 37°39' E 008°05'.

Length 335 m; draft 11.6 m.

Type: Ship (hazmat cat D). MMSI: 373932000.

Date/timePositionNaut miles runAvg speedWind from/ knotsBaromVisibWave heightAir tempDewpointWater temp
2017-Oct-18 22:42N 37°39' E 008°05'418.7
2017-Oct-18 22:29N 37°39' E 007°60'918.5
2017-Oct-18 22:00N 37°37' E 007°49'11418.7
2017-Oct-18 15:53N 37°24' E 005°25'12518.9
2017-Oct-18 09:17N 37°08' E 002°50'519.0
2017-Oct-18 09:00N 37°06' E 002°44'919.0
2017-Oct-18 08:30N 37°04' E 002°32'1019.4
2017-Oct-18 08:00N 37°02' E 002°20'1019.4
2017-Oct-18 07:30N 37°00' E 002°08'1019.3
2017-Oct-18 07:00N 36°58' E 001°56'1019.1
2017-Oct-18 06:28N 36°57' E 001°43'919.0
2017-Oct-18 06:00N 36°56' E 001°33'1019.1
2017-Oct-18 05:30N 36°54' E 001°21'1019.3
2017-Oct-18 05:00N 36°52' E 001°09'1019.1
2017-Oct-18 04:30N 36°51' E 000°57'919.0
2017-Oct-18 04:00N 36°49' E 000°45'1919.1
2017-Oct-18 03:00N 36°46' E 000°22'919.2
2017-Oct-18 02:30N 36°45' E 000°10'1319.1
2017-Oct-18 01:50N 36°42' W 000°05'919.1
2017-Oct-18 01:21N 36°40' W 000°17'719.0
2017-Oct-18 01:00N 36°38' W 000°25'1018.9
2017-Oct-18 00:28N 36°36' W 000°37'818.7
2017-Oct-18 00:00N 36°35' W 000°48'1018.6
2017-Oct-17 23:29N 36°33' W 000°60'1518.9
2017-Oct-17 22:40N 36°30' W 001°18'519.2
2017-Oct-17 22:26N 36°29' W 001°24'18419.6
2017-Oct-17 13:03N 35°59' W 005°09'119.9
2017-Oct-17 13:00N 35°59' W 005°10'1019.6
2017-Oct-17 12:30N 35°57' W 005°22'917.7
2017-Oct-17 12:00N 35°56' W 005°33'2216.4
2017-Oct-17 10:41N 35°54' W 005°59'318.0
2017-Oct-17 10:30N 35°53' W 006°03'84918.4
2017-Oct-15 12:29N 36°37' W 023°35'817.6
2017-Oct-15 12:00N 36°38' W 023°45'917.9
2017-Oct-15 11:30N 36°39' W 023°56'917.9
2017-Oct-15 11:00N 36°39' W 024°07'917.9
2017-Oct-15 10:30N 36°40' W 024°18'917.7
2017-Oct-15 10:00N 36°41' W 024°29'918.1
2017-Oct-15 09:30N 36°41' W 024°40'918.1
2017-Oct-15 09:00N 36°42' W 024°52'917.8
2017-Oct-15 08:30N 36°43' W 025°03'917.9
2017-Oct-15 08:00N 36°44' W 025°14'918.0
2017-Oct-15 07:30N 36°46' W 025°25'917.9
2017-Oct-15 07:00N 36°48' W 025°36'918.0
2017-Oct-15 06:30N 36°50' W 025°47'917.4
2017-Oct-15 06:00N 36°51' W 025°57'917.6
2017-Oct-15 05:30N 36°53' W 026°08'917.9
2017-Oct-15 05:00N 36°55' W 026°19'918.1
2017-Oct-15 04:30N 36°57' W 026°30'918.1
2017-Oct-15 04:00N 36°59' W 026°41'917.9
2017-Oct-15 03:30N 37°00' W 026°52'917.6
2017-Oct-15 03:00N 37°02' W 027°03'918.2
2017-Oct-15 02:30N 37°04' W 027°14'  
Track history (hours):
 
Tides and Currents Weather Stations Pressure Air Temp Water Temp Dewpoint Dewpoint Depression Visibility Wind Speed Wind Dir Waves Ship Positions

Hangzhou Bay Bridge

Last reported at 2017-Oct-18 22:42 UTC. Time now 2017-Oct-19 00:21 UTC.
Position N 37°39' E 008°05'.

Length 335 m; draft 11.6 m.

Type: Ship (hazmat cat D). MMSI: 373932000.

Date/timePositionNaut miles runAvg speedWind from/ knotsBaromVisibWave heightAir tempDewpointWater temp
2017-Oct-18 22:42N 37°39' E 008°05'418.7
2017-Oct-18 22:29N 37°39' E 007°60'918.5
2017-Oct-18 22:00N 37°37' E 007°49'11418.7
2017-Oct-18 15:53N 37°24' E 005°25'12518.9
2017-Oct-18 09:17N 37°08' E 002°50'519.0
2017-Oct-18 09:00N 37°06' E 002°44'919.0
2017-Oct-18 08:30N 37°04' E 002°32'1019.4
2017-Oct-18 08:00N 37°02' E 002°20'1019.4
2017-Oct-18 07:30N 37°00' E 002°08'1019.3
2017-Oct-18 07:00N 36°58' E 001°56'1019.1
2017-Oct-18 06:28N 36°57' E 001°43'919.0
2017-Oct-18 06:00N 36°56' E 001°33'1019.1
2017-Oct-18 05:30N 36°54' E 001°21'1019.3
2017-Oct-18 05:00N 36°52' E 001°09'1019.1
2017-Oct-18 04:30N 36°51' E 000°57'919.0
2017-Oct-18 04:00N 36°49' E 000°45'1919.1
2017-Oct-18 03:00N 36°46' E 000°22'919.2
2017-Oct-18 02:30N 36°45' E 000°10'1319.1
2017-Oct-18 01:50N 36°42' W 000°05'919.1
2017-Oct-18 01:21N 36°40' W 000°17'719.0
2017-Oct-18 01:00N 36°38' W 000°25'1018.9
2017-Oct-18 00:28N 36°36' W 000°37'818.7
2017-Oct-18 00:00N 36°35' W 000°48'1018.6
2017-Oct-17 23:29N 36°33' W 000°60'1518.9
2017-Oct-17 22:40N 36°30' W 001°18'519.2
2017-Oct-17 22:26N 36°29' W 001°24'18419.6
2017-Oct-17 13:03N 35°59' W 005°09'119.9
2017-Oct-17 13:00N 35°59' W 005°10'1019.6
2017-Oct-17 12:30N 35°57' W 005°22'917.7
2017-Oct-17 12:00N 35°56' W 005°33'2216.4
2017-Oct-17 10:41N 35°54' W 005°59'318.0
2017-Oct-17 10:30N 35°53' W 006°03'84918.4
2017-Oct-15 12:29N 36°37' W 023°35'817.6
2017-Oct-15 12:00N 36°38' W 023°45'917.9
2017-Oct-15 11:30N 36°39' W 023°56'917.9
2017-Oct-15 11:00N 36°39' W 024°07'917.9
2017-Oct-15 10:30N 36°40' W 024°18'917.7
2017-Oct-15 10:00N 36°41' W 024°29'918.1
2017-Oct-15 09:30N 36°41' W 024°40'918.1
2017-Oct-15 09:00N 36°42' W 024°52'917.8
2017-Oct-15 08:30N 36°43' W 025°03'917.9
2017-Oct-15 08:00N 36°44' W 025°14'918.0
2017-Oct-15 07:30N 36°46' W 025°25'917.9
2017-Oct-15 07:00N 36°48' W 025°36'918.0
2017-Oct-15 06:30N 36°50' W 025°47'917.4
2017-Oct-15 06:00N 36°51' W 025°57'917.6
2017-Oct-15 05:30N 36°53' W 026°08'917.9
2017-Oct-15 05:00N 36°55' W 026°19'918.1
2017-Oct-15 04:30N 36°57' W 026°30'918.1
2017-Oct-15 04:00N 36°59' W 026°41'917.9
2017-Oct-15 03:30N 37°00' W 026°52'917.6
2017-Oct-15 03:00N 37°02' W 027°03'918.2
2017-Oct-15 02:30N 37°04' W 027°14'  

Dump ship's entire track history